sensor_id;sensor_type;location;lat;lon;timestamp;pressure;altitude;pressure_sealevel;temperature;humidity
6020;BME280;3038;51.122;6.840;2023-07-09T00:01:57;101392.78;;;23.76;57.76
6020;BME280;3038;51.122;6.840;2023-07-09T00:04:23;101393.63;;;23.77;57.85
6020;BME280;3038;51.122;6.840;2023-07-09T00:06:48;101390.91;;;23.77;57.48
6020;BME280;3038;51.122;6.840;2023-07-09T00:09:17;101390.31;;;23.75;57.53
6020;BME280;3038;51.122;6.840;2023-07-09T00:11:43;101384.75;;;23.70;57.54
6020;BME280;3038;51.122;6.840;2023-07-09T00:14:10;101380.25;;;23.64;57.96
6020;BME280;3038;51.122;6.840;2023-07-09T00:16:36;101382.78;;;23.58;58.05
6020;BME280;3038;51.122;6.840;2023-07-09T00:19:02;101377.91;;;23.49;58.69
6020;BME280;3038;51.122;6.840;2023-07-09T00:21:28;101383.81;;;23.46;59.15
6020;BME280;3038;51.122;6.840;2023-07-09T00:24:00;101380.47;;;23.44;58.94
6020;BME280;3038;51.122;6.840;2023-07-09T00:26:31;101378.47;;;23.39;59.34
6020;BME280;3038;51.122;6.840;2023-07-09T00:29:00;101383.28;;;23.37;59.37
6020;BME280;3038;51.122;6.840;2023-07-09T00:31:26;101381.03;;;23.34;59.42
6020;BME280;3038;51.122;6.840;2023-07-09T00:33:52;101381.72;;;23.29;59.73
6020;BME280;3038;51.122;6.840;2023-07-09T00:36:29;101369.47;;;23.27;60.82
6020;BME280;3038;51.122;6.840;2023-07-09T00:38:57;101371.56;;;23.25;60.02
6020;BME280;3038;51.122;6.840;2023-07-09T00:41:28;101370.59;;;23.19;59.62
6020;BME280;3038;51.122;6.840;2023-07-09T00:43:55;101365.41;;;23.18;59.53
6020;BME280;3038;51.122;6.840;2023-07-09T00:48:50;101370.81;;;23.18;60.46
6020;BME280;3038;51.122;6.840;2023-07-09T00:51:19;101372.47;;;23.19;59.83
6020;BME280;3038;51.122;6.840;2023-07-09T00:53:46;101372.91;;;23.16;60.05
6020;BME280;3038;51.122;6.840;2023-07-09T00:56:17;101379.63;;;23.13;60.74
6020;BME280;3038;51.122;6.840;2023-07-09T00:58:48;101378.44;;;23.09;60.82
6020;BME280;3038;51.122;6.840;2023-07-09T01:01:16;101373.69;;;23.04;60.76
6020;BME280;3038;51.122;6.840;2023-07-09T01:03:50;101368.88;;;23.06;61.43
6020;BME280;3038;51.122;6.840;2023-07-09T01:06:23;101369.72;;;23.07;61.17
6020;BME280;3038;51.122;6.840;2023-07-09T01:08:51;101370.97;;;23.04;60.82
6020;BME280;3038;51.122;6.840;2023-07-09T01:11:21;101367.06;;;23.00;60.93
6020;BME280;3038;51.122;6.840;2023-07-09T01:13:48;101373.78;;;22.98;60.97
6020;BME280;3038;51.122;6.840;2023-07-09T01:16:16;101373.97;;;22.96;60.97
6020;BME280;3038;51.122;6.840;2023-07-09T01:18:42;101368.56;;;22.96;60.89
6020;BME280;3038;51.122;6.840;2023-07-09T01:21:11;101382.09;;;22.96;60.86
6020;BME280;3038;51.122;6.840;2023-07-09T01:23:44;101375.03;;;22.95;60.54
6020;BME280;3038;51.122;6.840;2023-07-09T01:26:11;101372.34;;;22.95;60.87
6020;BME280;3038;51.122;6.840;2023-07-09T01:28:38;101383.16;;;22.95;60.58
6020;BME280;3038;51.122;6.840;2023-07-09T01:31:07;101382.34;;;22.95;60.71
6020;BME280;3038;51.122;6.840;2023-07-09T01:33:32;101380.94;;;22.92;60.35
6020;BME280;3038;51.122;6.840;2023-07-09T01:35:58;101382.78;;;22.92;60.39
6020;BME280;3038;51.122;6.840;2023-07-09T01:38:26;101385.72;;;22.90;60.41
6020;BME280;3038;51.122;6.840;2023-07-09T01:40:56;101382.41;;;22.88;60.96
6020;BME280;3038;51.122;6.840;2023-07-09T01:43:23;101384.47;;;22.86;60.87
6020;BME280;3038;51.122;6.840;2023-07-09T01:45:50;101389.53;;;22.82;60.94
6020;BME280;3038;51.122;6.840;2023-07-09T01:48:17;101387.03;;;22.81;60.86
6020;BME280;3038;51.122;6.840;2023-07-09T01:50:43;101384.56;;;22.79;60.90
6020;BME280;3038;51.122;6.840;2023-07-09T01:53:12;101385.81;;;22.77;61.90
6020;BME280;3038;51.122;6.840;2023-07-09T01:55:39;101389.19;;;22.72;61.24
6020;BME280;3038;51.122;6.840;2023-07-09T01:58:05;101392.59;;;22.68;61.66
6020;BME280;3038;51.122;6.840;2023-07-09T02:00:33;101393.13;;;22.58;62.52
6020;BME280;3038;51.122;6.840;2023-07-09T02:03:00;101393.63;;;22.48;62.72
6020;BME280;3038;51.122;6.840;2023-07-09T02:05:29;101394.28;;;22.44;63.04
6020;BME280;3038;51.122;6.840;2023-07-09T02:07:55;101389.06;;;22.42;62.74
6020;BME280;3038;51.122;6.840;2023-07-09T02:10:21;101395.31;;;22.43;62.92
6020;BME280;3038;51.122;6.840;2023-07-09T02:12:46;101399.75;;;22.37;63.30
6020;BME280;3038;51.122;6.840;2023-07-09T02:15:12;101396.88;;;22.32;63.45
6020;BME280;3038;51.122;6.840;2023-07-09T02:17:38;101395.06;;;22.26;63.99
6020;BME280;3038;51.122;6.840;2023-07-09T02:20:04;101392.34;;;22.26;64.12
6020;BME280;3038;51.122;6.840;2023-07-09T02:22:32;101388.00;;;22.25;63.78
6020;BME280;3038;51.122;6.840;2023-07-09T02:24:57;101396.13;;;22.25;64.22
6020;BME280;3038;51.122;6.840;2023-07-09T02:27:23;101389.25;;;22.22;64.09
6020;BME280;3038;51.122;6.840;2023-07-09T02:29:49;101392.19;;;22.21;64.73
6020;BME280;3038;51.122;6.840;2023-07-09T02:32:23;101393.00;;;22.21;65.37
6020;BME280;3038;51.122;6.840;2023-07-09T02:34:49;101395.50;;;22.23;64.03
6020;BME280;3038;51.122;6.840;2023-07-09T02:37:19;101395.50;;;22.23;64.56
6020;BME280;3038;51.122;6.840;2023-07-09T02:39:45;101395.50;;;22.23;64.51
6020;BME280;3038;51.122;6.840;2023-07-09T02:42:13;101399.25;;;22.22;64.91
6020;BME280;3038;51.122;6.840;2023-07-09T02:44:39;101393.84;;;22.22;64.47
6020;BME280;3038;51.122;6.840;2023-07-09T02:47:05;101393.41;;;22.25;64.63
6020;BME280;3038;51.122;6.840;2023-07-09T02:49:31;101402.56;;;22.24;64.81
6020;BME280;3038;51.122;6.840;2023-07-09T02:51:56;101400.06;;;22.22;64.80
6020;BME280;3038;51.122;6.840;2023-07-09T02:54:21;101398.44;;;22.21;65.11
6020;BME280;3038;51.122;6.840;2023-07-09T02:56:47;101405.09;;;22.19;65.09
6020;BME280;3038;51.122;6.840;2023-07-09T02:59:12;101402.63;;;22.17;64.93
6020;BME280;3038;51.122;6.840;2023-07-09T03:01:39;101401.56;;;22.18;65.33
6020;BME280;3038;51.122;6.840;2023-07-09T03:04:04;101399.69;;;22.19;65.15
6020;BME280;3038;51.122;6.840;2023-07-09T03:06:30;101401.34;;;22.20;64.76
6020;BME280;3038;51.122;6.840;2023-07-09T03:08:59;101403.84;;;22.21;64.85
6020;BME280;3038;51.122;6.840;2023-07-09T03:11:25;101405.47;;;22.22;64.48
6020;BME280;3038;51.122;6.840;2023-07-09T03:13:50;101413.19;;;22.19;65.02
6020;BME280;3038;51.122;6.840;2023-07-09T03:16:16;101410.13;;;22.15;64.73
6020;BME280;3038;51.122;6.840;2023-07-09T03:18:44;101409.72;;;22.12;65.31
6020;BME280;3038;51.122;6.840;2023-07-09T03:21:09;101410.75;;;22.11;65.52
6020;BME280;3038;51.122;6.840;2023-07-09T03:23:34;101422.59;;;22.10;65.27
6020;BME280;3038;51.122;6.840;2023-07-09T03:26:00;101418.88;;;22.11;65.26
6020;BME280;3038;51.122;6.840;2023-07-09T03:28:25;101420.94;;;22.08;65.50
6020;BME280;3038;51.122;6.840;2023-07-09T03:30:54;101428.06;;;22.03;66.27
6020;BME280;3038;51.122;6.840;2023-07-09T03:33:20;101429.78;;;21.97;66.45
6020;BME280;3038;51.122;6.840;2023-07-09T03:35:45;101430.19;;;21.94;66.32
6020;BME280;3038;51.122;6.840;2023-07-09T03:38:11;101435.00;;;21.92;66.59
6020;BME280;3038;51.122;6.840;2023-07-09T03:40:37;101433.94;;;21.93;66.56
6020;BME280;3038;51.122;6.840;2023-07-09T03:43:08;101428.97;;;21.90;67.35
6020;BME280;3038;51.122;6.840;2023-07-09T03:45:34;101431.06;;;21.88;66.85
6020;BME280;3038;51.122;6.840;2023-07-09T03:47:59;101435.88;;;21.86;67.07
6020;BME280;3038;51.122;6.840;2023-07-09T03:50:25;101433.38;;;21.85;67.14
6020;BME280;3038;51.122;6.840;2023-07-09T03:52:50;101437.34;;;21.82;67.45
6020;BME280;3038;51.122;6.840;2023-07-09T03:55:15;101435.91;;;21.79;67.87
6020;BME280;3038;51.122;6.840;2023-07-09T03:57:41;101438.19;;;21.83;67.57
6020;BME280;3038;51.122;6.840;2023-07-09T04:00:07;101435.25;;;21.84;67.57
6020;BME280;3038;51.122;6.840;2023-07-09T04:02:36;101439.81;;;21.84;67.43
6020;BME280;3038;51.122;6.840;2023-07-09T04:05:02;101439.41;;;21.87;67.42
6020;BME280;3038;51.122;6.840;2023-07-09T04:07:28;101439.19;;;21.88;67.12
6020;BME280;3038;51.122;6.840;2023-07-09T04:09:53;101441.66;;;21.90;66.87
6020;BME280;3038;51.122;6.840;2023-07-09T04:12:18;101436.81;;;21.98;66.77
6020;BME280;3038;51.122;6.840;2023-07-09T04:14:44;101441.63;;;21.96;66.77
6020;BME280;3038;51.122;6.840;2023-07-09T04:17:09;101439.75;;;21.97;66.75
6020;BME280;3038;51.122;6.840;2023-07-09T04:19:35;101448.69;;;21.97;66.91
6020;BME280;3038;51.122;6.840;2023-07-09T04:22:00;101433.94;;;21.93;66.97
6020;BME280;3038;51.122;6.840;2023-07-09T04:24:26;101443.06;;;21.99;66.97
6020;BME280;3038;51.122;6.840;2023-07-09T04:26:52;101445.13;;;22.03;66.92
6020;BME280;3038;51.122;6.840;2023-07-09T04:29:22;101450.09;;;22.06;66.63
6020;BME280;3038;51.122;6.840;2023-07-09T04:31:47;101444.22;;;22.10;66.71
6020;BME280;3038;51.122;6.840;2023-07-09T04:34:13;101452.78;;;22.13;66.80
6020;BME280;3038;51.122;6.840;2023-07-09T04:36:39;101448.81;;;22.16;66.48
6020;BME280;3038;51.122;6.840;2023-07-09T04:39:04;101448.38;;;22.19;66.41
6020;BME280;3038;51.122;6.840;2023-07-09T04:41:31;101455.22;;;22.21;66.27
6020;BME280;3038;51.122;6.840;2023-07-09T04:43:56;101453.34;;;22.22;66.42
6020;BME280;3038;51.122;6.840;2023-07-09T04:46:22;101453.34;;;22.22;66.61
6020;BME280;3038;51.122;6.840;2023-07-09T04:48:48;101450.00;;;22.26;66.18
6020;BME280;3038;51.122;6.840;2023-07-09T04:51:14;101453.09;;;22.30;66.29
6020;BME280;3038;51.122;6.840;2023-07-09T04:53:39;101449.56;;;22.29;66.58
6020;BME280;3038;51.122;6.840;2023-07-09T04:56:06;101451.63;;;22.34;66.19
6020;BME280;3038;51.122;6.840;2023-07-09T04:58:31;101453.66;;;22.39;65.97
6020;BME280;3038;51.122;6.840;2023-07-09T05:00:57;101449.84;;;22.46;65.79
6020;BME280;3038;51.122;6.840;2023-07-09T05:03:23;101450.22;;;22.50;65.71
6020;BME280;3038;51.122;6.840;2023-07-09T05:05:48;101450.00;;;22.51;65.34
6020;BME280;3038;51.122;6.840;2023-07-09T05:08:14;101451.81;;;22.57;65.33
6020;BME280;3038;51.122;6.840;2023-07-09T05:10:44;101445.53;;;22.64;65.04
6020;BME280;3038;51.122;6.840;2023-07-09T05:13:10;101452.75;;;22.70;65.25
6020;BME280;3038;51.122;6.840;2023-07-09T05:15:40;101446.69;;;22.74;64.81
6020;BME280;3038;51.122;6.840;2023-07-09T05:18:06;101450.38;;;22.80;64.50
6020;BME280;3038;51.122;6.840;2023-07-09T05:20:33;101448.06;;;22.83;64.47
6020;BME280;3038;51.122;6.840;2023-07-09T05:22:58;101450.47;;;22.92;64.23
6020;BME280;3038;51.122;6.840;2023-07-09T05:25:24;101455.84;;;22.98;64.44
6020;BME280;3038;51.122;6.840;2023-07-09T05:27:49;101451.78;;;23.07;63.91
6020;BME280;3038;51.122;6.840;2023-07-09T05:30:14;101455.72;;;23.12;64.16
6020;BME280;3038;51.122;6.840;2023-07-09T05:32:40;101449.63;;;23.16;63.98
6020;BME280;3038;51.122;6.840;2023-07-09T05:35:06;101449.97;;;23.20;63.82
6020;BME280;3038;51.122;6.840;2023-07-09T05:37:31;101450.38;;;23.23;63.94
6020;BME280;3038;51.122;6.840;2023-07-09T05:39:56;101449.09;;;23.26;64.07
6020;BME280;3038;51.122;6.840;2023-07-09T05:42:22;101451.03;;;23.37;63.70
6020;BME280;3038;51.122;6.840;2023-07-09T05:44:47;101450.75;;;23.45;63.07
6020;BME280;3038;51.122;6.840;2023-07-09T05:47:13;101455.25;;;23.51;62.71
6020;BME280;3038;51.122;6.840;2023-07-09T05:49:39;101450.34;;;23.60;62.33
6020;BME280;3038;51.122;6.840;2023-07-09T05:52:04;101446.50;;;23.68;62.19
6020;BME280;3038;51.122;6.840;2023-07-09T05:54:31;101450.56;;;23.77;61.52
6020;BME280;3038;51.122;6.840;2023-07-09T05:56:57;101452.72;;;23.87;61.37
6020;BME280;3038;51.122;6.840;2023-07-09T05:59:22;101445.53;;;23.92;61.14
6020;BME280;3038;51.122;6.840;2023-07-09T06:01:48;101453.38;;;24.00;61.06
6020;BME280;3038;51.122;6.840;2023-07-09T06:04:13;101447.63;;;24.08;60.36
6020;BME280;3038;51.122;6.840;2023-07-09T06:06:40;101454.13;;;24.19;60.12
6020;BME280;3038;51.122;6.840;2023-07-09T06:09:07;101447.06;;;24.18;60.19
6020;BME280;3038;51.122;6.840;2023-07-09T06:11:33;101449.06;;;24.23;60.07
6020;BME280;3038;51.122;6.840;2023-07-09T06:13:59;101452.03;;;24.33;59.48
6020;BME280;3038;51.122;6.840;2023-07-09T06:16:24;101451.72;;;24.41;59.36
6020;BME280;3038;51.122;6.840;2023-07-09T06:18:50;101449.84;;;24.53;59.59
6020;BME280;3038;51.122;6.840;2023-07-09T06:21:16;101455.63;;;24.69;59.07
6020;BME280;3038;51.122;6.840;2023-07-09T06:23:41;101449.38;;;24.80;58.37
6020;BME280;3038;51.122;6.840;2023-07-09T06:26:07;101453.88;;;24.86;58.33
6020;BME280;3038;51.122;6.840;2023-07-09T06:28:32;101451.75;;;24.88;57.97
6020;BME280;3038;51.122;6.840;2023-07-09T06:30:58;101447.50;;;24.92;57.71
6020;BME280;3038;51.122;6.840;2023-07-09T06:33:27;101452.78;;;24.99;57.36
6020;BME280;3038;51.122;6.840;2023-07-09T06:35:58;101449.50;;;25.08;57.08
6020;BME280;3038;51.122;6.840;2023-07-09T06:38:24;101456.22;;;25.18;56.79
6020;BME280;3038;51.122;6.840;2023-07-09T06:40:50;101454.13;;;25.20;56.76
6020;BME280;3038;51.122;6.840;2023-07-09T06:43:16;101454.22;;;25.25;56.54
6020;BME280;3038;51.122;6.840;2023-07-09T06:45:54;101455.00;;;25.37;55.70
6020;BME280;3038;51.122;6.840;2023-07-09T06:48:22;101460.19;;;25.50;56.00
6020;BME280;3038;51.122;6.840;2023-07-09T06:50:48;101458.72;;;25.59;55.63
6020;BME280;3038;51.122;6.840;2023-07-09T06:53:15;101461.56;;;25.64;55.32
6020;BME280;3038;51.122;6.840;2023-07-09T06:55:40;101456.31;;;25.75;55.12
6020;BME280;3038;51.122;6.840;2023-07-09T06:58:06;101452.72;;;25.86;54.88
6020;BME280;3038;51.122;6.840;2023-07-09T07:00:34;101453.16;;;25.95;54.71
6020;BME280;3038;51.122;6.840;2023-07-09T07:03:00;101450.97;;;26.08;54.56
6020;BME280;3038;51.122;6.840;2023-07-09T07:05:26;101447.84;;;26.17;53.94
6020;BME280;3038;51.122;6.840;2023-07-09T07:07:52;101447.69;;;26.23;54.16
6020;BME280;3038;51.122;6.840;2023-07-09T07:10:19;101453.03;;;26.35;53.64
6020;BME280;3038;51.122;6.840;2023-07-09T07:12:46;101448.47;;;26.52;53.72
6020;BME280;3038;51.122;6.840;2023-07-09T07:15:15;101445.41;;;26.65;53.19
6020;BME280;3038;51.122;6.840;2023-07-09T07:17:41;101448.47;;;26.69;53.11
6020;BME280;3038;51.122;6.840;2023-07-09T07:20:08;101443.41;;;26.78;52.90
6020;BME280;3038;51.122;6.840;2023-07-09T07:22:34;101446.84;;;26.90;52.92
6020;BME280;3038;51.122;6.840;2023-07-09T07:24:59;101449.78;;;27.05;52.62
6020;BME280;3038;51.122;6.840;2023-07-09T07:27:25;101441.22;;;27.13;52.08
6020;BME280;3038;51.122;6.840;2023-07-09T07:29:50;101445.16;;;27.23;52.04
6020;BME280;3038;51.122;6.840;2023-07-09T07:32:16;101439.81;;;27.33;51.62
6020;BME280;3038;51.122;6.840;2023-07-09T07:34:41;101438.31;;;27.42;51.45
6020;BME280;3038;51.122;6.840;2023-07-09T07:37:07;101435.69;;;27.52;51.35
6020;BME280;3038;51.122;6.840;2023-07-09T07:39:32;101434.94;;;27.57;50.85
6020;BME280;3038;51.122;6.840;2023-07-09T07:41:57;101439.69;;;27.66;51.13
6020;BME280;3038;51.122;6.840;2023-07-09T07:44:23;101442.53;;;27.77;49.96
6020;BME280;3038;51.122;6.840;2023-07-09T07:46:49;101439.59;;;27.83;49.95
6020;BME280;3038;51.122;6.840;2023-07-09T07:49:14;101430.94;;;27.91;49.82
6020;BME280;3038;51.122;6.840;2023-07-09T07:51:40;101434.91;;;28.06;49.33
6020;BME280;3038;51.122;6.840;2023-07-09T07:54:07;101442.56;;;28.09;49.37
6020;BME280;3038;51.122;6.840;2023-07-09T07:56:35;101435.25;;;28.14;49.27
6020;BME280;3038;51.122;6.840;2023-07-09T07:59:01;101430.41;;;28.22;49.40
6020;BME280;3038;51.122;6.840;2023-07-09T08:01:26;101437.13;;;28.41;49.08
6020;BME280;3038;51.122;6.840;2023-07-09T08:03:51;101436.94;;;28.53;48.26
6020;BME280;3038;51.122;6.840;2023-07-09T08:06:17;101436.78;;;28.69;47.82
6020;BME280;3038;51.122;6.840;2023-07-09T08:08:44;101437.47;;;28.87;48.29
6020;BME280;3038;51.122;6.840;2023-07-09T08:11:09;101439.69;;;28.95;47.71
6020;BME280;3038;51.122;6.840;2023-07-09T08:13:35;101438.13;;;29.04;47.42
6020;BME280;3038;51.122;6.840;2023-07-09T08:16:01;101439.28;;;29.18;47.13
6020;BME280;3038;51.122;6.840;2023-07-09T08:18:27;101426.19;;;29.26;46.58
6020;BME280;3038;51.122;6.840;2023-07-09T08:20:52;101418.56;;;29.43;46.77
6020;BME280;3038;51.122;6.840;2023-07-09T08:23:18;101426.31;;;29.61;46.32
6020;BME280;3038;51.122;6.840;2023-07-09T08:25:44;101425.25;;;29.67;45.29
6020;BME280;3038;51.122;6.840;2023-07-09T08:28:09;101420.34;;;29.69;45.67
6020;BME280;3038;51.122;6.840;2023-07-09T08:30:35;101417.59;;;29.69;45.78
6020;BME280;3038;51.122;6.840;2023-07-09T08:33:01;101409.94;;;29.77;45.75
6020;BME280;3038;51.122;6.840;2023-07-09T08:35:26;101416.78;;;29.79;45.27
6020;BME280;3038;51.122;6.840;2023-07-09T08:37:52;101406.38;;;29.86;45.69
6020;BME280;3038;51.122;6.840;2023-07-09T08:40:18;101406.13;;;29.98;44.89
6020;BME280;3038;51.122;6.840;2023-07-09T08:42:46;101401.72;;;30.07;44.80
6020;BME280;3038;51.122;6.840;2023-07-09T08:48:03;101401.75;;;30.43;43.59
6020;BME280;3038;51.122;6.840;2023-07-09T08:50:41;101401.44;;;30.55;43.44
6020;BME280;3038;51.122;6.840;2023-07-09T08:53:15;101392.41;;;30.49;43.56
6020;BME280;3038;51.122;6.840;2023-07-09T09:14:30;101395.72;;;31.36;41.00
6020;BME280;3038;51.122;6.840;2023-07-09T09:16:57;101393.50;;;31.43;41.96
6020;BME280;3038;51.122;6.840;2023-07-09T09:19:28;101394.47;;;31.63;41.16
6020;BME280;3038;51.122;6.840;2023-07-09T09:22:01;101384.75;;;31.76;41.08
6020;BME280;3038;51.122;6.840;2023-07-09T09:24:53;101385.53;;;31.91;40.61
6020;BME280;3038;51.122;6.840;2023-07-09T09:27:20;101382.38;;;32.03;40.22
6020;BME280;3038;51.122;6.840;2023-07-09T09:29:45;101383.97;;;32.09;40.36
6020;BME280;3038;51.122;6.840;2023-07-09T09:34:46;101381.13;;;32.19;39.71
6020;BME280;3038;51.122;6.840;2023-07-09T09:37:12;101374.97;;;32.33;39.18
6020;BME280;3038;51.122;6.840;2023-07-09T09:39:38;101369.41;;;32.43;39.22
6020;BME280;3038;51.122;6.840;2023-07-09T09:42:10;101374.78;;;32.53;38.17
6020;BME280;3038;51.122;6.840;2023-07-09T09:44:43;101379.47;;;32.53;38.07
6020;BME280;3038;51.122;6.840;2023-07-09T09:47:10;101373.28;;;32.66;39.41
6020;BME280;3038;51.122;6.840;2023-07-09T09:49:40;101380.78;;;32.84;38.16
6020;BME280;3038;51.122;6.840;2023-07-09T09:52:14;101373.31;;;32.90;37.96
6020;BME280;3038;51.122;6.840;2023-07-09T09:54:46;101382.00;;;32.97;37.75
6020;BME280;3038;51.122;6.840;2023-07-09T09:57:21;101381.22;;;33.15;37.92
6020;BME280;3038;51.122;6.840;2023-07-09T09:59:47;101369.78;;;33.27;37.20
6020;BME280;3038;51.122;6.840;2023-07-09T10:02:18;101372.84;;;33.44;36.51
6020;BME280;3038;51.122;6.840;2023-07-09T10:04:44;101368.25;;;33.59;37.20
6020;BME280;3038;51.122;6.840;2023-07-09T10:07:21;101367.41;;;33.77;36.88
6020;BME280;3038;51.122;6.840;2023-07-09T10:09:51;101369.56;;;33.80;36.23
6020;BME280;3038;51.122;6.840;2023-07-09T10:15:16;101348.13;;;33.96;35.97
6020;BME280;3038;51.122;6.840;2023-07-09T10:18:08;101348.25;;;34.18;36.06
6020;BME280;3038;51.122;6.840;2023-07-09T10:20:41;101348.69;;;34.25;36.12
6020;BME280;3038;51.122;6.840;2023-07-09T10:25:53;101342.81;;;34.46;35.88
6020;BME280;3038;51.122;6.840;2023-07-09T10:28:26;101345.03;;;34.44;35.29
6020;BME280;3038;51.122;6.840;2023-07-09T10:31:06;101347.09;;;34.52;36.60
6020;BME280;3038;51.122;6.840;2023-07-09T10:36:56;101341.66;;;34.88;33.70
6020;BME280;3038;51.122;6.840;2023-07-09T10:39:28;101348.03;;;35.02;33.67
6020;BME280;3038;51.122;6.840;2023-07-09T10:41:57;101340.41;;;35.22;33.94
6020;BME280;3038;51.122;6.840;2023-07-09T10:44:46;101351.41;;;35.49;32.85
6020;BME280;3038;51.122;6.840;2023-07-09T10:47:37;101348.34;;;35.73;33.03
6020;BME280;3038;51.122;6.840;2023-07-09T10:50:06;101345.44;;;36.01;32.55
6020;BME280;3038;51.122;6.840;2023-07-09T10:52:37;101342.31;;;36.25;32.95
6020;BME280;3038;51.122;6.840;2023-07-09T10:55:18;101342.66;;;36.01;31.94
6020;BME280;3038;51.122;6.840;2023-07-09T11:00:18;101342.41;;;35.66;32.51
6020;BME280;3038;51.122;6.840;2023-07-09T11:02:46;101334.59;;;35.60;33.94
6020;BME280;3038;51.122;6.840;2023-07-09T11:05:13;101334.56;;;35.82;32.80
6020;BME280;3038;51.122;6.840;2023-07-09T11:07:39;101321.00;;;35.94;32.58
6020;BME280;3038;51.122;6.840;2023-07-09T11:10:19;101321.91;;;36.43;33.27
6020;BME280;3038;51.122;6.840;2023-07-09T11:12:57;101316.38;;;37.61;30.59
6020;BME280;3038;51.122;6.840;2023-07-09T11:15:31;101308.66;;;38.78;28.40
6020;BME280;3038;51.122;6.840;2023-07-09T11:17:58;101298.03;;;39.43;27.93
6020;BME280;3038;51.122;6.840;2023-07-09T11:20:28;101296.53;;;40.24;28.47
6020;BME280;3038;51.122;6.840;2023-07-09T11:23:05;101291.31;;;40.59;25.87
6020;BME280;3038;51.122;6.840;2023-07-09T11:25:44;101290.78;;;41.06;24.64
6020;BME280;3038;51.122;6.840;2023-07-09T11:28:11;101292.50;;;41.11;25.23
6020;BME280;3038;51.122;6.840;2023-07-09T11:30:51;101291.25;;;41.24;24.45
6020;BME280;3038;51.122;6.840;2023-07-09T11:33:27;101289.94;;;41.46;25.13
6020;BME280;3038;51.122;6.840;2023-07-09T11:36:05;101278.81;;;41.77;24.82
6020;BME280;3038;51.122;6.840;2023-07-09T11:38:39;101283.63;;;41.49;23.96
6020;BME280;3038;51.122;6.840;2023-07-09T11:44:10;101282.25;;;41.87;24.17
6020;BME280;3038;51.122;6.840;2023-07-09T11:49:35;101271.00;;;42.46;22.99
6020;BME280;3038;51.122;6.840;2023-07-09T11:52:07;101280.28;;;42.34;23.26
6020;BME280;3038;51.122;6.840;2023-07-09T11:54:37;101281.81;;;42.00;23.61
6020;BME280;3038;51.122;6.840;2023-07-09T11:57:05;101288.13;;;41.97;23.16
6020;BME280;3038;51.122;6.840;2023-07-09T11:59:42;101276.81;;;42.22;22.88
6020;BME280;3038;51.122;6.840;2023-07-09T12:02:19;101279.94;;;43.06;23.62
6020;BME280;3038;51.122;6.840;2023-07-09T12:04:50;101282.50;;;43.15;22.05
6020;BME280;3038;51.122;6.840;2023-07-09T12:07:16;101271.88;;;42.85;22.70
6020;BME280;3038;51.122;6.840;2023-07-09T12:09:48;101278.81;;;42.41;22.64
6020;BME280;3038;51.122;6.840;2023-07-09T12:12:23;101281.59;;;41.62;23.49
6020;BME280;3038;51.122;6.840;2023-07-09T12:14:50;101272.34;;;41.73;23.45
6020;BME280;3038;51.122;6.840;2023-07-09T12:17:15;101261.91;;;42.33;23.06
6020;BME280;3038;51.122;6.840;2023-07-09T12:19:41;101273.81;;;42.30;22.94
6020;BME280;3038;51.122;6.840;2023-07-09T12:22:15;101264.22;;;42.47;22.68
6020;BME280;3038;51.122;6.840;2023-07-09T12:24:43;101250.84;;;42.72;22.26
6020;BME280;3038;51.122;6.840;2023-07-09T12:27:23;101236.78;;;43.69;21.55
6020;BME280;3038;51.122;6.840;2023-07-09T12:29:52;101229.44;;;44.07;20.75
6020;BME280;3038;51.122;6.840;2023-07-09T12:32:19;101226.47;;;43.73;21.21
6020;BME280;3038;51.122;6.840;2023-07-09T12:34:51;101226.16;;;43.13;20.22
6020;BME280;3038;51.122;6.840;2023-07-09T12:37:18;101222.44;;;42.51;21.51
6020;BME280;3038;51.122;6.840;2023-07-09T12:39:44;101232.06;;;41.87;22.62
6020;BME280;3038;51.122;6.840;2023-07-09T12:42:16;101227.16;;;40.43;22.30
6020;BME280;3038;51.122;6.840;2023-07-09T12:44:42;101221.47;;;39.66;23.42
6020;BME280;3038;51.122;6.840;2023-07-09T12:47:13;101214.50;;;39.06;23.96
6020;BME280;3038;51.122;6.840;2023-07-09T12:49:42;101210.84;;;38.30;25.32
6020;BME280;3038;51.122;6.840;2023-07-09T12:52:18;101212.81;;;38.21;25.46
6020;BME280;3038;51.122;6.840;2023-07-09T12:54:54;101209.41;;;38.16;26.65
6020;BME280;3038;51.122;6.840;2023-07-09T12:57:20;101205.69;;;37.65;26.21
6020;BME280;3038;51.122;6.840;2023-07-09T12:59:46;101195.97;;;37.41;26.56
6020;BME280;3038;51.122;6.840;2023-07-09T13:02:17;101205.94;;;36.99;27.17
6020;BME280;3038;51.122;6.840;2023-07-09T13:04:43;101202.53;;;36.76;26.69
6020;BME280;3038;51.122;6.840;2023-07-09T13:09:52;101196.75;;;36.38;27.21
6020;BME280;3038;51.122;6.840;2023-07-09T13:12:20;101186.44;;;36.21;27.78
6020;BME280;3038;51.122;6.840;2023-07-09T13:14:56;101182.25;;;35.92;28.89
6020;BME280;3038;51.122;6.840;2023-07-09T13:17:21;101186.06;;;35.65;29.16
6020;BME280;3038;51.122;6.840;2023-07-09T13:19:47;101181.44;;;35.52;29.90
6020;BME280;3038;51.122;6.840;2023-07-09T13:22:17;101179.41;;;35.44;30.93
6020;BME280;3038;51.122;6.840;2023-07-09T13:24:45;101166.66;;;35.25;32.41
6020;BME280;3038;51.122;6.840;2023-07-09T13:27:14;101165.53;;;35.04;32.34
6020;BME280;3038;51.122;6.840;2023-07-09T13:29:40;101178.66;;;34.85;33.49
6020;BME280;3038;51.122;6.840;2023-07-09T13:32:11;101169.84;;;34.60;32.87
6020;BME280;3038;51.122;6.840;2023-07-09T13:34:37;101172.72;;;34.55;33.31
6020;BME280;3038;51.122;6.840;2023-07-09T13:37:05;101172.66;;;34.46;33.01
6020;BME280;3038;51.122;6.840;2023-07-09T13:39:31;101165.13;;;34.24;32.58
6020;BME280;3038;51.122;6.840;2023-07-09T13:41:56;101171.44;;;34.11;32.50
6020;BME280;3038;51.122;6.840;2023-07-09T13:44:25;101164.22;;;34.01;32.54
6020;BME280;3038;51.122;6.840;2023-07-09T13:46:51;101167.47;;;33.90;32.88
6020;BME280;3038;51.122;6.840;2023-07-09T13:49:24;101164.28;;;33.83;32.94
6020;BME280;3038;51.122;6.840;2023-07-09T13:51:54;101182.41;;;33.56;33.93
6020;BME280;3038;51.122;6.840;2023-07-09T13:54:26;101205.72;;;31.50;43.40
6020;BME280;3038;51.122;6.840;2023-07-09T13:56:53;101227.84;;;29.03;48.38
6020;BME280;3038;51.122;6.840;2023-07-09T14:01:46;101240.84;;;27.43;nan
6020;BME280;3038;51.122;6.840;2023-07-09T14:04:14;101239.91;;;27.05;nan